Time;durP1;ratioP1;P1;durP2;ratioP2;P2;SDS_P1;SDS_P2;PMS_P1;PMS_P2;Temp;Humidity;BMP_temperature;BMP_pressure;BME280_temperature;BME280_humidity;BME280_pressure;Samples;Min_cycle;Max_cycle;Signal;HPM_P1;HPM_P2
2022/08/19 00:01:58;;;;;;;7.20;6.15;;;;;;;27.98;82.09;99716.44;5091164;28;20201;-75
2022/08/19 00:04:27;;;;;;;8.77;6.65;;;;;;;28.08;81.05;99717.59;5090858;28;20202;-75
2022/08/19 00:06:54;;;;;;;10.77;6.25;;;;;;;27.92;80.97;99699.97;5091296;28;20225;-76
2022/08/19 00:09:23;;;;;;;7.72;6.88;;;;;;;28.11;79.55;99707.72;5091111;28;20222;-76
2022/08/19 00:11:50;;;;;;;6.43;5.82;;;;;;;28.04;79.41;99717.84;5090781;28;20190;-75
2022/08/19 00:14:20;;;;;;;7.85;6.30;;;;;;;28.23;78.23;99715.78;5090794;28;20201;-76
2022/08/19 00:16:48;;;;;;;8.95;6.70;;;;;;;27.95;77.71;99662.47;5090522;28;20232;-75
2022/08/19 00:19:15;;;;;;;7.40;6.70;;;;;;;28.14;78.30;99686.19;5090781;28;20255;-74
2022/08/19 00:21:42;;;;;;;10.38;6.13;;;;;;;28.22;76.87;99702.56;5090611;28;20202;-75
2022/08/19 00:24:11;;;;;;;9.10;6.18;;;;;;;28.11;76.63;99681.06;5054942;28;20213;-74
2022/08/19 00:26:39;;;;;;;7.43;6.57;;;;;;;28.24;76.46;99700.63;5054914;28;20205;-75
2022/08/19 00:29:07;;;;;;;7.28;6.10;;;;;;;28.28;75.76;99702.16;5090572;28;20225;-75
2022/08/19 00:31:36;;;;;;;6.82;5.72;;;;;;;28.26;75.63;99696.06;5090582;28;20615;-75
2022/08/19 00:34:03;;;;;;;7.82;6.22;;;;;;;28.25;75.13;99686.38;5071668;28;20202;-74
2022/08/19 00:36:32;;;;;;;6.55;5.95;;;;;;;28.26;75.35;99715.59;5090342;28;20245;-74
2022/08/19 00:38:59;;;;;;;6.30;5.70;;;;;;;28.34;75.70;99713.28;5090371;28;20232;-75
2022/08/19 00:41:27;;;;;;;8.52;6.45;;;;;;;28.22;75.91;99708.72;5090359;28;20212;-75
2022/08/19 00:44:02;;;;;;;7.38;6.43;;;;;;;28.31;75.44;99717.97;5090448;28;20191;-75
2022/08/19 00:46:29;;;;;;;7.50;6.10;;;;;;;28.21;75.76;99711.50;5090630;28;20711;-75
2022/08/19 00:48:58;;;;;;;8.88;6.40;;;;;;;28.28;75.83;99710.16;5054761;28;20228;-74
2022/08/19 00:51:26;;;;;;;11.20;5.88;;;;;;;28.23;76.01;99714.91;5054389;28;20190;-75
2022/08/19 00:53:55;;;;;;;6.97;5.97;;;;;;;28.22;75.80;99692.72;5090133;28;20198;-75
2022/08/19 00:56:22;;;;;;;8.85;6.65;;;;;;;28.24;75.98;99712.16;5090073;28;20198;-76
2022/08/19 00:58:49;;;;;;;6.55;6.05;;;;;;;28.17;76.53;99715.31;5089924;28;20202;-75
2022/08/19 01:01:16;;;;;;;6.47;5.85;;;;;;;28.20;76.45;99725.78;5090206;28;20204;-75
2022/08/19 01:03:42;;;;;;;7.10;6.40;;;;;;;28.13;76.69;99711.97;5090113;28;20205;-74
2022/08/19 01:06:11;;;;;;;6.60;5.93;;;;;;;28.24;76.73;99716.66;5090186;28;20202;-75
2022/08/19 01:08:38;;;;;;;6.63;5.95;;;;;;;27.92;77.58;99687.50;5071032;28;20221;-75
2022/08/19 01:11:05;;;;;;;8.27;6.70;;;;;;;27.96;77.83;99690.84;5092107;28;20200;-74
2022/08/19 01:13:34;;;;;;;8.48;6.57;;;;;;;28.04;77.87;99684.03;5094082;28;20190;-74
2022/08/19 01:16:06;;;;;;;9.63;6.10;;;;;;;28.12;77.97;99712.06;5094516;28;20194;-75
2022/08/19 01:18:38;;;;;;;7.95;7.13;;;;;;;28.01;78.19;99696.72;5093802;28;20194;-75
2022/08/19 01:21:15;;;;;;;7.65;6.47;;;;;;;28.08;78.45;99716.72;5093782;28;20226;-75
2022/08/19 01:23:44;;;;;;;7.97;6.47;;;;;;;28.03;79.16;99725.00;5093652;28;20220;-75
2022/08/19 01:26:14;;;;;;;11.73;6.68;;;;;;;27.96;80.21;99718.34;5074951;28;20201;-75
2022/08/19 01:28:44;;;;;;;11.65;7.00;;;;;;;27.86;81.54;99722.50;5093425;28;20222;-75
2022/08/19 01:31:14;;;;;;;9.20;6.95;;;;;;;27.74;83.91;99715.28;5093678;28;20704;-75
2022/08/19 01:33:41;;;;;;;9.63;7.03;;;;;;;27.59;87.46;99730.41;5093859;28;20616;-75
2022/08/19 01:36:12;;;;;;;8.75;7.50;;;;;;;27.56;90.77;99727.91;5093693;28;20202;-75
2022/08/19 01:38:42;;;;;;;9.18;7.60;;;;;;;27.43;97.58;99739.38;5094147;28;20198;-75
2022/08/19 01:41:11;;;;;;;14.85;8.20;;;;;;;27.33;99.56;99741.69;5093852;28;20198;-75
2022/08/19 01:43:38;;;;;;;9.85;8.13;;;;;;;27.10;100.00;99744.88;5093460;28;20209;-75
2022/08/19 01:46:05;;;;;;;8.70;7.75;;;;;;;26.89;100.00;99712.38;5093695;28;20200;-75
2022/08/19 01:48:38;;;;;;;10.13;7.45;;;;;;;27.04;100.00;99721.28;5093216;28;20674;-75
2022/08/19 01:51:05;;;;;;;10.43;8.13;;;;;;;26.93;100.00;99719.22;5093082;28;20197;-75
2022/08/19 01:53:33;;;;;;;7.97;7.18;;;;;;;26.90;100.00;99724.72;5093248;28;20206;-75
2022/08/19 01:56:00;;;;;;;10.45;8.07;;;;;;;26.81;100.00;99719.91;5093156;28;20208;-75
2022/08/19 01:58:31;;;;;;;9.30;7.97;;;;;;;26.99;100.00;99740.16;5093350;28;20209;-75
2022/08/19 02:00:58;;;;;;;9.23;8.00;;;;;;;26.91;100.00;99736.22;5074660;28;20194;-75
2022/08/19 02:03:26;;;;;;;9.88;7.70;;;;;;;26.79;100.00;99735.06;5093425;28;20202;-76
2022/08/19 02:05:56;;;;;;;11.27;8.27;;;;;;;26.73;100.00;99715.94;5093502;28;20193;-75
2022/08/19 02:08:23;;;;;;;11.35;7.28;;;;;;;26.75;100.00;99743.34;5093287;28;20201;-76
2022/08/19 02:10:50;;;;;;;10.25;8.48;;;;;;;26.69;100.00;99741.00;5093418;28;20232;-76
2022/08/19 02:13:17;;;;;;;8.65;7.55;;;;;;;26.75;100.00;99746.00;5093526;28;20190;-75
2022/08/19 02:15:46;;;;;;;9.20;7.30;;;;;;;26.68;100.00;99728.69;5057261;28;20194;-76
2022/08/19 02:18:13;;;;;;;12.35;8.27;;;;;;;26.71;100.00;99740.00;5092787;28;20209;-76
2022/08/19 02:20:42;;;;;;;11.80;8.13;;;;;;;26.69;100.00;99730.38;5092887;28;20198;-76
2022/08/19 02:23:11;;;;;;;12.15;7.68;;;;;;;26.63;100.00;99742.22;5092115;28;20198;-76
2022/08/19 02:25:39;;;;;;;10.30;8.50;;;;;;;26.57;100.00;99738.13;5056970;28;20190;-75
2022/08/19 02:28:06;;;;;;;12.85;7.53;;;;;;;26.51;99.85;99722.47;5093213;28;20221;-76
2022/08/19 02:30:33;;;;;;;8.70;7.80;;;;;;;26.45;100.00;99732.59;5092461;28;20604;-76
2022/08/19 02:33:01;;;;;;;11.40;7.78;;;;;;;26.50;100.00;99733.22;5092588;28;20206;-74
2022/08/19 02:35:28;;;;;;;10.55;7.82;;;;;;;26.42;100.00;99738.09;5056800;28;20189;-75
2022/08/19 02:40:39;;;;;;;8.80;7.90;;;;;;;26.52;100.00;99749.94;5092516;28;20602;-74
2022/08/19 02:43:08;;;;;;;11.20;8.20;;;;;;;26.44;100.00;99738.88;5092742;28;20198;-75
2022/08/19 02:45:36;;;;;;;8.30;7.50;;;;;;;26.57;100.00;99748.75;5092325;28;20205;-75
2022/08/19 02:48:05;;;;;;;10.63;8.55;;;;;;;26.48;100.00;99740.41;5092122;28;20206;-75
2022/08/19 02:50:32;;;;;;;8.85;7.95;;;;;;;26.56;100.00;99778.94;5092593;28;20257;-76
2022/08/19 02:52:59;;;;;;;10.18;7.63;;;;;;;26.50;100.00;99778.44;5092255;28;20221;-76
2022/08/19 02:55:26;;;;;;;8.35;7.32;;;;;;;26.50;100.00;99778.44;5073278;28;20194;-75
2022/08/19 02:57:52;;;;;;;9.07;8.18;;;;;;;26.50;100.00;99778.44;5092254;28;20199;-76
2022/08/19 03:00:19;;;;;;;10.55;8.10;;;;;;;26.47;98.93;99781.25;5092050;28;20593;-76
2022/08/19 03:02:48;;;;;;;9.85;7.63;;;;;;;26.44;98.90;99773.44;5092353;28;20197;-76
2022/08/19 03:05:17;;;;;;;12.60;7.88;;;;;;;25.99;99.73;99700.56;5092461;28;20198;-76
2022/08/19 03:07:44;;;;;;;11.80;7.90;;;;;;;26.35;100.00;99784.59;5092329;28;20283;-76
2022/08/19 03:10:11;;;;;;;11.77;8.25;;;;;;;26.21;100.00;99764.06;5091828;28;20226;-76
2022/08/19 03:12:39;;;;;;;9.85;7.25;;;;;;;26.33;100.00;99773.16;5091825;28;20202;-75
2022/08/19 03:15:08;;;;;;;9.52;8.32;;;;;;;26.40;100.00;99777.19;5091991;28;20202;-75
2022/08/19 03:17:36;;;;;;;10.00;7.88;;;;;;;26.35;100.00;99789.91;5092074;28;20201;-75
2022/08/19 03:20:05;;;;;;;12.35;8.18;;;;;;;26.35;100.00;99785.44;5092091;28;20216;-75
2022/08/19 03:22:33;;;;;;;10.07;8.02;;;;;;;26.42;100.00;99785.97;5092079;28;20195;-76
2022/08/19 03:25:00;;;;;;;9.85;8.38;;;;;;;26.35;100.00;99790.75;5091804;28;20198;-76
2022/08/19 03:27:27;;;;;;;9.48;8.43;;;;;;;26.27;100.00;99776.16;5091685;28;20685;-76
2022/08/19 03:29:54;;;;;;;16.63;8.25;;;;;;;26.40;100.00;99790.50;5091787;28;20226;-76
2022/08/19 03:32:21;;;;;;;16.38;8.23;;;;;;;26.37;100.00;99788.88;5091587;28;20190;-76
2022/08/19 03:34:49;;;;;;;11.10;7.53;;;;;;;26.28;100.00;99775.22;5056072;28;20186;-76
2022/08/19 03:37:15;;;;;;;11.52;8.10;;;;;;;26.27;100.00;99792.09;5091819;28;20294;-76
2022/08/19 03:39:44;;;;;;;11.07;7.68;;;;;;;26.32;100.00;99785.63;5091887;28;20666;-75
2022/08/19 03:42:11;;;;;;;12.18;7.60;;;;;;;26.26;100.00;99790.38;5091787;28;20190;-75
2022/08/19 03:44:38;;;;;;;12.55;8.10;;;;;;;26.17;100.00;99777.56;5091311;28;20288;-75
2022/08/19 03:47:06;;;;;;;11.00;8.27;;;;;;;26.24;99.38;99771.88;5072846;28;20442;-76
2022/08/19 03:49:34;;;;;;;13.35;8.02;;;;;;;26.48;98.45;99801.56;5091623;28;20311;-76
2022/08/19 03:52:04;;;;;;;8.55;7.63;;;;;;;26.52;97.27;99798.69;5091312;28;20198;-76
2022/08/19 03:54:31;;;;;;;8.80;7.63;;;;;;;26.69;96.63;99802.19;5091583;28;20194;-76
2022/08/19 03:56:59;;;;;;;14.48;8.07;;;;;;;27.02;94.78;99792.34;5091146;28;20197;-76
2022/08/19 03:59:29;;;;;;;10.75;6.93;;;;;;;27.32;92.56;99789.75;5091520;28;20198;-73
2022/08/19 04:01:58;;;;;;;19.33;8.43;;;;;;;27.79;89.81;99806.44;5091077;28;20221;-72
2022/08/19 04:04:25;;;;;;;12.75;7.28;;;;;;;28.25;85.30;99803.69;5090886;28;20281;-72
2022/08/19 04:06:53;;;;;;;13.65;7.15;;;;;;;28.55;82.62;99818.63;5054896;28;20198;-72
2022/08/19 04:09:21;;;;;;;13.20;7.07;;;;;;;28.86;80.92;99817.56;5090837;28;20213;-72
2022/08/19 04:11:49;;;;;;;13.93;7.35;;;;;;;29.20;79.13;99815.38;5090620;28;20198;-71
2022/08/19 04:14:20;;;;;;;9.38;6.97;;;;;;;29.47;76.20;99800.22;5090427;28;20198;-72
2022/08/19 04:16:49;;;;;;;10.45;7.35;;;;;;;29.85;74.60;99819.91;5090311;28;20717;-72
2022/08/19 04:19:17;;;;;;;8.38;7.10;;;;;;;30.36;72.42;99819.88;5090341;28;20194;-72
2022/08/19 04:21:46;;;;;;;14.52;7.05;;;;;;;30.83;68.43;99822.72;5090296;28;20205;-71
2022/08/19 04:24:14;;;;;;;9.07;7.13;;;;;;;30.86;67.02;99818.97;5084909;28;20598;-71
2022/08/19 04:26:41;;;;;;;13.00;7.63;;;;;;;31.20;65.29;99822.75;5069841;28;20195;-72
2022/08/19 04:29:10;;;;;;;9.98;7.32;;;;;;;31.53;64.18;99822.94;5073543;28;20674;-73
2022/08/19 04:31:40;;;;;;;10.85;7.35;;;;;;;31.89;62.34;99825.47;5087920;28;20230;-72
2022/08/19 04:34:11;;;;;;;11.52;7.15;;;;;;;31.99;61.94;99822.09;5087030;28;20279;-71
2022/08/19 04:36:39;;;;;;;20.45;7.15;;;;;;;32.09;60.86;99826.66;5079623;28;20230;-72
2022/08/19 04:39:10;;;;;;;10.52;6.97;;;;;;;32.04;60.44;99801.13;5089708;28;20254;-73
2022/08/19 04:44:31;;;;;;;11.65;7.68;;;;;;;33.54;57.33;99830.06;5028692;28;20318;-72
2022/08/19 04:46:59;;;;;;;11.30;7.38;;;;;;;34.04;54.97;99804.25;5027069;28;20216;-73
2022/08/19 04:49:26;;;;;;;11.55;7.70;;;;;;;34.36;54.07;99841.88;5027253;28;20251;-73
2022/08/19 04:51:54;;;;;;;12.88;7.32;;;;;;;34.79;52.90;99837.13;4987553;28;20203;-73
2022/08/19 04:54:23;;;;;;;11.35;7.78;;;;;;;35.34;50.56;99834.88;5031639;28;20218;-73
2022/08/19 04:56:50;;;;;;;10.60;8.05;;;;;;;35.90;48.59;99836.88;5035259;28;20788;-73
2022/08/19 04:59:18;;;;;;;17.65;9.25;;;;;;;36.10;48.01;99844.00;4984110;28;20614;-75
2022/08/19 05:01:49;;;;;;;11.82;8.77;;;;;;;36.40;47.10;99834.78;5033334;28;20313;-75
2022/08/19 05:04:20;;;;;;;17.90;9.38;;;;;;;36.86;46.20;99844.72;5034591;28;20294;-75
2022/08/19 05:06:48;;;;;;;19.98;9.80;;;;;;;36.80;46.81;99831.81;5027307;28;20199;-75
2022/08/19 05:09:16;;;;;;;23.02;9.63;;;;;;;36.97;47.22;99839.97;5027180;28;20204;-76
2022/08/19 05:11:44;;;;;;;19.23;8.52;;;;;;;37.20;46.86;99851.25;5027087;28;20604;-75
2022/08/19 05:14:13;;;;;;;16.85;9.02;;;;;;;36.87;49.45;99844.59;5027359;28;20749;-75
2022/08/19 05:16:40;;;;;;;17.63;8.50;;;;;;;36.58;49.97;99851.97;5029755;28;20293;-76
2022/08/19 05:24:52;;;;;;;14.27;8.05;;;;;;;35.32;54.20;99842.25;5046665;28;20210;-75
2022/08/19 05:27:19;;;;;;;21.20;8.45;;;;;;;35.16;54.90;99848.19;5013524;28;20200;-75
2022/08/19 05:29:46;;;;;;;29.98;9.18;;;;;;;35.04;56.05;99848.41;5027094;28;20212;-75
2022/08/19 05:32:13;;;;;;;22.98;8.80;;;;;;;34.76;57.65;99856.28;5046092;28;20210;-77
2022/08/19 05:34:40;;;;;;;16.98;9.52;;;;;;;34.33;59.57;99848.41;5046954;28;20678;-77
2022/08/19 05:37:08;;;;;;;19.40;8.85;;;;;;;34.12;62.18;99846.66;5046854;28;20316;-77
2022/08/19 05:39:37;;;;;;;16.77;8.40;;;;;;;33.90;64.31;99844.97;5046983;28;20291;-77
2022/08/19 05:42:06;;;;;;;19.77;8.85;;;;;;;33.80;65.51;99842.22;5047081;28;20241;-77
2022/08/19 05:44:35;;;;;;;16.67;9.13;;;;;;;33.26;69.85;99842.28;4998431;28;20678;-77
2022/08/19 05:47:04;;;;;;;13.90;8.63;;;;;;;32.98;70.62;99817.75;5047238;28;20199;-79
2022/08/19 05:49:33;;;;;;;11.38;7.47;;;;;;;33.06;70.94;99842.19;5046821;28;20288;-77
2022/08/19 05:52:03;;;;;;;9.32;7.57;;;;;;;32.59;73.79;99837.97;5047037;28;20281;-77
2022/08/19 05:54:31;;;;;;;10.50;8.77;;;;;;;32.28;78.20;99848.41;5046769;28;20195;-78
2022/08/19 05:56:58;;;;;;;15.07;8.63;;;;;;;32.07;77.79;99847.38;5088046;28;20284;-77
2022/08/19 05:59:25;;;;;;;9.50;8.15;;;;;;;31.73;79.10;99851.78;5093438;28;20284;-77
2022/08/19 06:01:54;;;;;;;10.65;7.63;;;;;;;31.30;82.68;99843.38;5093337;28;20247;-78
2022/08/19 06:04:21;;;;;;;9.45;8.02;;;;;;;30.23;84.32;99777.09;5093017;28;20202;-77
2022/08/19 06:06:50;;;;;;;10.38;8.68;;;;;;;29.64;87.73;99775.03;5093603;28;20193;-78
2022/08/19 06:09:18;;;;;;;9.90;8.35;;;;;;;29.97;89.59;99807.47;5093196;28;20197;-77
2022/08/19 06:11:48;;;;;;;11.52;8.90;;;;;;;30.28;87.40;99843.69;5092895;28;20229;-77
2022/08/19 06:14:17;;;;;;;12.93;8.88;;;;;;;30.17;87.85;99836.41;5093138;28;20186;-78
2022/08/19 06:16:45;;;;;;;9.07;8.18;;;;;;;29.66;86.12;99760.59;5093200;28;20220;-77
2022/08/19 06:19:14;;;;;;;10.10;8.45;;;;;;;30.15;86.10;99816.91;5090614;28;20688;-77
2022/08/19 06:21:43;;;;;;;8.75;7.45;;;;;;;29.83;85.11;99799.53;5093019;28;20221;-77
2022/08/19 06:24:13;;;;;;;12.48;8.10;;;;;;;30.32;83.98;99819.25;5092377;28;20598;-77
2022/08/19 06:26:42;;;;;;;12.70;8.20;;;;;;;30.52;84.10;99787.59;5092558;28;20197;-77
2022/08/19 06:29:13;;;;;;;9.73;7.43;;;;;;;30.61;78.73;99833.28;5092593;28;20689;-77
2022/08/19 06:31:43;;;;;;;14.25;7.90;;;;;;;30.51;79.45;99834.91;5079436;28;20617;-77
2022/08/19 06:34:10;;;;;;;8.15;7.30;;;;;;;30.65;80.74;99833.91;5092040;28;20604;-79
2022/08/19 06:36:40;;;;;;;14.23;6.90;;;;;;;30.77;77.04;99800.91;5092385;28;20614;-77
2022/08/19 06:39:09;;;;;;;8.80;6.78;;;;;;;30.70;75.41;99832.63;5069185;28;20202;-77
2022/08/19 06:41:37;;;;;;;10.60;7.32;;;;;;;31.10;74.04;99837.81;5072055;28;20718;-78
2022/08/19 06:44:05;;;;;;;11.98;6.68;;;;;;;30.85;73.19;99825.31;5072031;28;20197;-77
2022/08/19 06:46:33;;;;;;;7.85;6.75;;;;;;;30.35;74.59;99820.88;5072432;28;20596;-76
2022/08/19 06:49:01;;;;;;;9.18;6.72;;;;;;;30.65;73.79;99829.41;5072465;28;20203;-77
2022/08/19 06:51:28;;;;;;;7.15;6.22;;;;;;;30.33;72.46;99814.75;5072002;28;20226;-78
2022/08/19 06:53:56;;;;;;;7.03;5.85;;;;;;;30.28;72.23;99830.28;5072737;28;20202;-78
2022/08/19 06:56:30;;;;;;;7.72;6.88;;;;;;;30.50;73.21;99843.91;5072150;28;20195;-78
2022/08/19 06:58:57;;;;;;;10.40;6.30;;;;;;;30.44;74.61;99841.66;5072302;28;20760;-78
2022/08/19 07:01:24;;;;;;;8.32;6.72;;;;;;;30.24;75.42;99840.34;5072126;28;20213;-78
2022/08/19 07:03:52;;;;;;;16.02;6.53;;;;;;;30.41;73.13;99823.09;5072169;28;20203;-79
2022/08/19 07:06:20;;;;;;;10.38;6.88;;;;;;;30.42;72.58;99840.91;5072137;28;20206;-78
2022/08/19 07:08:48;;;;;;;10.35;5.95;;;;;;;30.44;71.87;99830.94;5069211;28;20590;-78
2022/08/19 07:11:18;;;;;;;6.90;6.20;;;;;;;30.98;72.16;99851.13;5071521;28;20218;-78
2022/08/19 07:13:46;;;;;;;7.53;6.82;;;;;;;30.50;70.37;99822.50;5035833;28;20690;-76
2022/08/19 07:16:15;;;;;;;11.05;5.70;;;;;;;30.50;72.84;99843.91;5071535;28;20201;-77
2022/08/19 07:18:44;;;;;;;7.50;6.63;;;;;;;30.64;71.98;99846.47;5071528;28;20202;-77
2022/08/19 07:21:16;;;;;;;13.63;6.80;;;;;;;30.94;71.78;99841.56;5071385;28;20194;-77
2022/08/19 07:23:43;;;;;;;8.43;6.22;;;;;;;30.69;69.85;99838.94;5071191;28;20580;-77
2022/08/19 07:26:14;;;;;;;7.70;5.78;;;;;;;30.94;69.95;99846.91;5069364;28;20221;-79
2022/08/19 07:28:43;;;;;;;11.82;6.88;;;;;;;31.33;67.47;99847.66;5071153;28;20203;-77
2022/08/19 07:31:12;;;;;;;7.38;6.32;;;;;;;31.56;66.62;99830.75;5068838;28;20230;-76
2022/08/19 07:33:40;;;;;;;9.50;6.65;;;;;;;31.35;67.57;99848.41;5070903;28;20682;-77
2022/08/19 07:36:11;;;;;;;9.63;6.85;;;;;;;31.22;67.33;99837.72;5068805;28;20191;-77
2022/08/19 07:38:41;;;;;;;12.20;5.97;;;;;;;31.14;67.56;99848.19;5071012;28;20198;-77
2022/08/19 07:41:10;;;;;;;12.35;6.45;;;;;;;31.09;69.77;99830.72;5071566;28;20237;-77
2022/08/19 07:43:38;;;;;;;9.07;6.32;;;;;;;31.20;67.71;99846.88;5068828;28;20182;-78
2022/08/19 07:46:05;;;;;;;8.85;6.38;;;;;;;31.25;66.94;99834.81;5070953;28;20662;-77
2022/08/19 07:48:32;;;;;;;8.07;6.22;;;;;;;31.54;66.33;99851.44;5070925;28;20182;-77
2022/08/19 07:51:02;;;;;;;7.32;6.47;;;;;;;31.49;66.35;99848.25;5051937;28;20240;-77
2022/08/19 07:53:30;;;;;;;8.27;7.00;;;;;;;31.63;65.82;99842.72;5070983;28;20198;-78
2022/08/19 07:56:03;;;;;;;8.27;6.45;;;;;;;31.89;64.63;99844.25;5070764;28;20205;-77
2022/08/19 07:58:31;;;;;;;9.48;6.32;;;;;;;30.92;64.69;99696.22;5070542;28;20194;-76
2022/08/19 08:00:59;;;;;;;9.32;5.95;;;;;;;31.55;63.91;99845.13;5070787;28;20198;-78
2022/08/19 08:11:35;;;;;;;9.10;6.85;;;;;;;32.22;59.18;99848.03;5070541;28;20275;-77
2022/08/19 08:14:02;;;;;;;10.40;5.75;;;;;;;31.85;56.74;99821.34;5051385;28;20686;-78
2022/08/19 08:16:30;;;;;;;10.43;6.13;;;;;;;32.20;56.23;99850.84;5070458;28;20206;-77
2022/08/19 08:18:57;;;;;;;8.25;5.60;;;;;;;32.40;53.42;99854.63;5076374;28;20195;-77
2022/08/19 08:21:24;;;;;;;6.15;5.50;;;;;;;32.41;52.91;99857.22;5090052;28;20202;-77
2022/08/19 08:23:51;;;;;;;5.53;4.80;;;;;;;32.31;50.96;99841.94;5076563;28;20190;-77
2022/08/19 08:26:18;;;;;;;8.02;5.38;;;;;;;32.29;50.63;99843.88;5087324;28;20263;-77
2022/08/19 08:28:47;;;;;;;4.15;3.85;;;;;;;32.28;48.93;99852.94;5040903;28;20202;-77
2022/08/19 08:31:14;;;;;;;7.72;4.75;;;;;;;32.36;51.05;99850.47;5086120;28;20274;-78
2022/08/19 08:33:42;;;;;;;6.32;5.43;;;;;;;32.70;50.57;99841.50;5090509;28;20276;-76
2022/08/19 08:36:10;;;;;;;6.70;5.22;;;;;;;32.60;51.23;99859.34;5090446;28;20205;-77
2022/08/19 08:38:38;;;;;;;10.38;5.35;;;;;;;32.55;51.09;99848.06;5090192;28;20663;-76
2022/08/19 08:41:19;;;;;;;6.75;5.18;;;;;;;32.58;50.46;99839.75;5077633;28;20769;-76
2022/08/19 08:43:50;;;;;;;14.82;5.68;;;;;;;32.81;49.72;99821.84;5076880;28;20201;-77
2022/08/19 08:46:23;;;;;;;6.20;4.85;;;;;;;32.99;48.56;99846.34;5090334;28;20633;-76
2022/08/19 08:48:55;;;;;;;6.28;5.13;;;;;;;33.03;47.31;99834.38;5089927;28;20195;-76
2022/08/19 08:51:26;;;;;;;8.18;5.28;;;;;;;33.37;47.19;99842.25;5089768;28;20707;-77
2022/08/19 08:53:55;;;;;;;5.43;4.72;;;;;;;33.27;47.46;99835.06;5076067;28;20197;-76
2022/08/19 08:56:22;;;;;;;5.50;5.00;;;;;;;33.18;48.22;99838.50;5089717;28;20425;-76
2022/08/19 08:58:57;;;;;;;11.10;5.57;;;;;;;33.55;48.33;99839.00;5089947;28;20197;-76
2022/08/19 09:01:24;;;;;;;8.05;5.45;;;;;;;33.26;49.48;99839.59;5089761;28;20204;-76
2022/08/19 09:03:51;;;;;;;7.85;5.18;;;;;;;32.72;50.04;99826.09;5089914;28;20201;-75
2022/08/19 09:06:26;;;;;;;7.13;5.55;;;;;;;32.92;50.61;99836.09;5089681;28;20210;-76
2022/08/19 09:09:03;;;;;;;8.63;5.70;;;;;;;32.80;50.90;99831.72;5086854;28;20201;-76
2022/08/19 09:11:43;;;;;;;7.88;5.10;;;;;;;32.98;50.68;99831.19;5080128;28;20281;-77
2022/08/19 09:14:20;;;;;;;6.30;5.70;;;;;;;33.02;50.60;99820.09;5089798;28;20209;-76
2022/08/19 09:16:49;;;;;;;6.00;5.40;;;;;;;33.28;52.03;99826.03;5089930;28;20209;-76
2022/08/19 09:19:17;;;;;;;8.88;5.47;;;;;;;33.30;50.24;99822.22;5089807;28;20205;-76
2022/08/19 09:21:45;;;;;;;8.00;5.50;;;;;;;33.54;49.15;99835.44;5090083;28;20201;-76
2022/08/19 09:24:13;;;;;;;7.15;5.32;;;;;;;33.26;50.35;99833.34;5089440;28;20229;-75
2022/08/19 09:26:40;;;;;;;6.40;5.18;;;;;;;33.00;49.84;99821.19;5050581;28;20202;-76
2022/08/19 09:29:07;;;;;;;7.43;5.40;;;;;;;33.20;50.57;99836.56;5084012;28;20202;-76
2022/08/19 09:31:35;;;;;;;9.88;5.45;;;;;;;33.23;51.25;99822.88;5090918;28;20308;-76
2022/08/19 09:34:04;;;;;;;11.35;5.60;;;;;;;33.35;50.53;99838.00;5093563;28;20197;-76
2022/08/19 09:36:33;;;;;;;7.75;6.10;;;;;;;33.36;49.98;99831.59;5093140;28;20190;-76
2022/08/19 09:39:00;;;;;;;7.97;6.07;;;;;;;33.51;49.06;99829.47;5093562;28;20204;-76
2022/08/19 09:41:27;;;;;;;9.98;5.75;;;;;;;33.05;50.09;99797.47;5093466;28;20637;-76
2022/08/19 09:43:56;;;;;;;11.00;5.57;;;;;;;33.49;50.15;99821.56;5093602;28;20205;-76
2022/08/19 09:46:25;;;;;;;7.28;6.13;;;;;;;33.50;50.31;99814.34;5093595;28;20198;-76
2022/08/19 09:48:56;;;;;;;10.13;5.80;;;;;;;33.67;49.73;99811.97;5093549;28;20322;-77
2022/08/19 09:51:25;;;;;;;10.80;5.55;;;;;;;33.56;49.99;99795.00;5093708;28;20229;-79
2022/08/19 09:53:54;;;;;;;5.95;5.18;;;;;;;33.84;49.65;99810.53;5093489;28;20197;-78
2022/08/19 09:56:22;;;;;;;8.00;5.55;;;;;;;34.09;49.48;99807.44;5093898;28;20258;-80
2022/08/19 09:58:49;;;;;;;10.10;5.80;;;;;;;33.79;49.43;99810.91;5057986;28;20194;-77
2022/08/19 10:01:19;;;;;;;9.02;5.93;;;;;;;33.55;49.58;99809.41;5092941;28;20193;-78
2022/08/19 10:03:49;;;;;;;15.07;6.50;;;;;;;33.50;48.88;99793.66;5092897;28;20285;-77
2022/08/19 10:06:17;;;;;;;9.80;5.93;;;;;;;33.98;48.97;99803.94;5093176;28;20581;-76
2022/08/19 10:08:45;;;;;;;7.22;5.97;;;;;;;33.77;48.59;99802.13;5092627;28;20193;-78
2022/08/19 10:11:14;;;;;;;8.27;5.68;;;;;;;33.60;49.12;99783.84;5092809;28;20199;-78
2022/08/19 10:13:41;;;;;;;6.70;5.57;;;;;;;33.87;48.48;99796.81;5092752;28;20229;-78
2022/08/19 10:16:09;;;;;;;10.82;6.18;;;;;;;34.04;47.75;99804.25;5092503;28;20193;-77
2022/08/19 10:18:37;;;;;;;5.65;4.97;;;;;;;33.87;48.66;99796.81;5092938;28;20189;-76
2022/08/19 10:21:09;;;;;;;9.45;6.32;;;;;;;33.85;48.40;99796.09;5093215;28;20190;-79
2022/08/19 10:23:38;;;;;;;14.98;5.88;;;;;;;33.93;48.83;99782.81;5092797;28;20194;-78
2022/08/19 10:26:06;;;;;;;9.65;5.50;;;;;;;33.75;49.65;99771.78;5092782;28;20202;-79
2022/08/19 10:28:34;;;;;;;7.85;5.30;;;;;;;34.11;48.21;99793.81;5093080;28;20746;-78
2022/08/19 10:31:06;;;;;;;9.85;5.82;;;;;;;34.47;48.39;99790.63;5092680;28;20689;-78
2022/08/19 10:33:34;;;;;;;17.25;6.03;;;;;;;34.36;48.07;99750.31;5092842;28;20262;-78
2022/08/19 10:36:02;;;;;;;11.25;6.78;;;;;;;34.23;47.63;99774.81;5092583;28;20744;-78
2022/08/19 10:38:29;;;;;;;13.43;7.72;;;;;;;34.40;48.29;99788.59;5092171;28;20713;-77
2022/08/19 10:40:58;;;;;;;7.65;6.10;;;;;;;34.48;47.52;99765.41;5040211;28;20186;-77
2022/08/19 10:43:25;;;;;;;7.88;6.05;;;;;;;34.24;47.42;99770.28;5091247;28;20202;-78
2022/08/19 10:45:59;;;;;;;8.35;5.68;;;;;;;34.78;47.12;99768.06;5092444;28;20259;-78
2022/08/19 10:48:26;;;;;;;12.13;5.97;;;;;;;34.95;46.38;99781.88;5092470;28;20193;-77
2022/08/19 10:53:37;;;;;;;10.52;5.78;;;;;;;34.17;46.83;99774.50;5092327;28;20306;-77
2022/08/19 10:58:50;;;;;;;10.40;5.97;;;;;;;34.15;45.84;99753.06;5092056;28;20205;-78
2022/08/19 11:01:17;;;;;;;6.75;5.85;;;;;;;34.46;46.01;99766.53;5092117;28;20201;-78
2022/08/19 11:03:44;;;;;;;8.88;6.68;;;;;;;34.83;45.20;99765.81;5091953;28;20200;-78
2022/08/19 11:06:12;;;;;;;9.30;6.78;;;;;;;34.80;44.22;99760.72;5091703;28;20190;-77
2022/08/19 11:08:40;;;;;;;7.80;6.20;;;;;;;34.91;45.13;99757.03;5092042;28;20206;-75
2022/08/19 11:11:09;;;;;;;9.05;6.43;;;;;;;35.00;45.41;99764.28;5091725;28;20254;-72
2022/08/19 11:13:37;;;;;;;7.20;6.05;;;;;;;35.18;44.79;99765.31;5056170;28;20232;-77
2022/08/19 11:16:07;;;;;;;10.70;6.88;;;;;;;35.20;43.67;99755.25;5091828;28;20194;-77
2022/08/19 11:18:37;;;;;;;8.27;6.63;;;;;;;35.05;44.20;99758.47;5092009;28;20259;-77
2022/08/19 11:21:09;;;;;;;6.80;5.38;;;;;;;35.39;44.33;99757.06;5091744;28;20233;-77
2022/08/19 11:23:35;;;;;;;7.32;5.82;;;;;;;34.85;43.71;99752.22;5091963;28;20193;-78
2022/08/19 11:26:02;;;;;;;9.20;5.90;;;;;;;35.06;43.87;99749.41;5091802;28;20204;-78
2022/08/19 11:28:31;;;;;;;9.70;6.25;;;;;;;35.14;43.87;99744.19;5091576;28;20284;-78
2022/08/19 11:30:57;;;;;;;13.93;6.40;;;;;;;34.98;44.02;99741.16;5091710;28;20197;-79
2022/08/19 11:33:26;;;;;;;12.23;6.43;;;;;;;35.16;44.11;99726.03;5091609;28;20237;-78
2022/08/19 11:35:53;;;;;;;8.10;5.63;;;;;;;35.07;43.54;99743.03;5091607;28;20201;-78
2022/08/19 11:38:20;;;;;;;8.48;6.38;;;;;;;35.11;43.66;99742.56;5091544;28;20618;-78
2022/08/19 11:40:54;;;;;;;8.13;5.80;;;;;;;35.45;42.87;99726.00;5055822;28;20189;-78
2022/08/19 11:43:21;;;;;;;9.73;5.75;;;;;;;35.08;43.49;99729.38;5091164;28;20201;-78
2022/08/19 11:45:49;;;;;;;8.55;5.57;;;;;;;35.87;43.49;99729.19;5091074;28;20693;-77
2022/08/19 11:48:17;;;;;;;9.90;5.95;;;;;;;35.74;41.71;99707.94;5055605;28;20186;-77
2022/08/19 11:50:43;;;;;;;8.23;6.00;;;;;;;35.73;42.19;99736.78;5091203;28;20197;-76
2022/08/19 11:53:10;;;;;;;9.52;6.32;;;;;;;35.69;42.45;99727.28;5091153;28;20225;-76
2022/08/19 11:55:39;;;;;;;8.52;5.65;;;;;;;35.45;43.13;99726.00;5090300;28;20760;-76
2022/08/19 11:58:07;;;;;;;10.68;5.60;;;;;;;35.42;43.13;99727.16;5090908;28;20255;-76
2022/08/19 12:00:35;;;;;;;11.15;6.22;;;;;;;35.33;42.15;99733.38;5090698;28;20639;-78